sensor_id;sensor_type;location;lat;lon;timestamp;temperature;humidity
8709;DHT22;4391;48.678;9.280;2022-10-31T00:01:51;9.30;99.90
8709;DHT22;4391;48.678;9.280;2022-10-31T00:04:18;9.20;99.90
8709;DHT22;4391;48.678;9.280;2022-10-31T00:06:45;9.20;99.90
8709;DHT22;4391;48.678;9.280;2022-10-31T00:09:12;9.20;99.90
8709;DHT22;4391;48.678;9.280;2022-10-31T00:11:39;9.20;99.90
8709;DHT22;4391;48.678;9.280;2022-10-31T00:14:05;9.20;99.90
8709;DHT22;4391;48.678;9.280;2022-10-31T00:16:45;9.10;99.90
8709;DHT22;4391;48.678;9.280;2022-10-31T00:19:13;9.20;99.90
8709;DHT22;4391;48.678;9.280;2022-10-31T00:21:39;9.10;99.90
8709;DHT22;4391;48.678;9.280;2022-10-31T00:24:07;9.10;99.90
8709;DHT22;4391;48.678;9.280;2022-10-31T00:26:34;9.10;99.90
8709;DHT22;4391;48.678;9.280;2022-10-31T00:29:01;9.10;99.90
8709;DHT22;4391;48.678;9.280;2022-10-31T00:31:28;9.10;99.90
8709;DHT22;4391;48.678;9.280;2022-10-31T00:33:56;9.10;99.90
8709;DHT22;4391;48.678;9.280;2022-10-31T00:36:24;9.10;99.90
8709;DHT22;4391;48.678;9.280;2022-10-31T00:38:51;9.10;99.90
8709;DHT22;4391;48.678;9.280;2022-10-31T00:41:18;9.10;99.90
8709;DHT22;4391;48.678;9.280;2022-10-31T00:43:45;9.20;99.90
8709;DHT22;4391;48.678;9.280;2022-10-31T00:46:12;9.20;99.90
8709;DHT22;4391;48.678;9.280;2022-10-31T00:48:39;9.10;99.90
8709;DHT22;4391;48.678;9.280;2022-10-31T00:51:07;9.10;99.90
8709;DHT22;4391;48.678;9.280;2022-10-31T00:53:35;9.10;99.90
8709;DHT22;4391;48.678;9.280;2022-10-31T00:56:03;9.10;99.90
8709;DHT22;4391;48.678;9.280;2022-10-31T00:58:29;9.10;99.90
8709;DHT22;4391;48.678;9.280;2022-10-31T01:00:56;9.00;99.90
8709;DHT22;4391;48.678;9.280;2022-10-31T01:03:24;9.00;99.90
8709;DHT22;4391;48.678;9.280;2022-10-31T01:05:59;9.00;99.90
8709;DHT22;4391;48.678;9.280;2022-10-31T01:08:26;9.00;99.90
8709;DHT22;4391;48.678;9.280;2022-10-31T01:11:04;8.90;99.90
8709;DHT22;4391;48.678;9.280;2022-10-31T01:13:31;8.90;99.90
8709;DHT22;4391;48.678;9.280;2022-10-31T01:15:59;8.80;99.90
8709;DHT22;4391;48.678;9.280;2022-10-31T01:18:27;8.80;99.90
8709;DHT22;4391;48.678;9.280;2022-10-31T01:21:01;8.80;99.90
8709;DHT22;4391;48.678;9.280;2022-10-31T01:23:28;8.80;99.90
8709;DHT22;4391;48.678;9.280;2022-10-31T01:26:08;8.80;99.90
8709;DHT22;4391;48.678;9.280;2022-10-31T01:28:37;8.80;99.90
8709;DHT22;4391;48.678;9.280;2022-10-31T01:31:05;8.70;99.90
8709;DHT22;4391;48.678;9.280;2022-10-31T01:33:33;8.70;99.90
8709;DHT22;4391;48.678;9.280;2022-10-31T01:36:00;8.70;99.90
8709;DHT22;4391;48.678;9.280;2022-10-31T01:38:27;8.60;99.90
8709;DHT22;4391;48.678;9.280;2022-10-31T01:40:54;8.60;99.90
8709;DHT22;4391;48.678;9.280;2022-10-31T01:43:22;8.60;99.90
8709;DHT22;4391;48.678;9.280;2022-10-31T01:45:52;8.60;99.90
8709;DHT22;4391;48.678;9.280;2022-10-31T01:48:21;8.60;99.90
8709;DHT22;4391;48.678;9.280;2022-10-31T01:50:51;8.60;99.90
8709;DHT22;4391;48.678;9.280;2022-10-31T01:53:20;8.60;99.90
8709;DHT22;4391;48.678;9.280;2022-10-31T01:55:48;8.60;99.90
8709;DHT22;4391;48.678;9.280;2022-10-31T01:58:16;8.60;99.90
8709;DHT22;4391;48.678;9.280;2022-10-31T02:00:50;8.50;99.90
8709;DHT22;4391;48.678;9.280;2022-10-31T02:03:19;8.50;99.90
8709;DHT22;4391;48.678;9.280;2022-10-31T02:05:46;8.40;99.90
8709;DHT22;4391;48.678;9.280;2022-10-31T02:08:16;8.40;99.90
8709;DHT22;4391;48.678;9.280;2022-10-31T02:10:44;8.40;99.90
8709;DHT22;4391;48.678;9.280;2022-10-31T02:13:11;8.40;99.90
8709;DHT22;4391;48.678;9.280;2022-10-31T02:15:40;8.40;99.90
8709;DHT22;4391;48.678;9.280;2022-10-31T02:18:09;8.30;99.90
8709;DHT22;4391;48.678;9.280;2022-10-31T02:20:41;8.30;99.90
8709;DHT22;4391;48.678;9.280;2022-10-31T02:23:33;8.30;99.90
8709;DHT22;4391;48.678;9.280;2022-10-31T02:26:14;8.30;99.90
8709;DHT22;4391;48.678;9.280;2022-10-31T02:29:10;8.20;99.90
8709;DHT22;4391;48.678;9.280;2022-10-31T02:31:48;8.10;99.90
8709;DHT22;4391;48.678;9.280;2022-10-31T02:34:19;8.10;99.90
8709;DHT22;4391;48.678;9.280;2022-10-31T02:36:53;8.10;99.90
8709;DHT22;4391;48.678;9.280;2022-10-31T02:39:25;8.10;99.90
8709;DHT22;4391;48.678;9.280;2022-10-31T02:42:01;8.10;99.90
8709;DHT22;4391;48.678;9.280;2022-10-31T02:44:34;8.10;99.90
8709;DHT22;4391;48.678;9.280;2022-10-31T02:47:06;8.10;99.90
8709;DHT22;4391;48.678;9.280;2022-10-31T02:49:39;8.00;99.90
8709;DHT22;4391;48.678;9.280;2022-10-31T02:52:17;8.00;99.90
8709;DHT22;4391;48.678;9.280;2022-10-31T02:54:46;7.90;99.90
8709;DHT22;4391;48.678;9.280;2022-10-31T02:57:14;7.90;99.90
8709;DHT22;4391;48.678;9.280;2022-10-31T02:59:47;7.80;99.90
8709;DHT22;4391;48.678;9.280;2022-10-31T03:02:51;7.80;99.90
8709;DHT22;4391;48.678;9.280;2022-10-31T03:05:41;7.80;99.90
8709;DHT22;4391;48.678;9.280;2022-10-31T03:08:16;7.80;99.90
8709;DHT22;4391;48.678;9.280;2022-10-31T03:10:51;7.80;99.90
8709;DHT22;4391;48.678;9.280;2022-10-31T03:13:24;7.70;99.90
8709;DHT22;4391;48.678;9.280;2022-10-31T03:15:56;7.70;99.90
8709;DHT22;4391;48.678;9.280;2022-10-31T03:18:30;7.70;99.90
8709;DHT22;4391;48.678;9.280;2022-10-31T03:21:03;7.60;99.90
8709;DHT22;4391;48.678;9.280;2022-10-31T03:23:32;7.60;99.90
8709;DHT22;4391;48.678;9.280;2022-10-31T03:26:01;7.60;99.90
8709;DHT22;4391;48.678;9.280;2022-10-31T03:28:33;7.60;99.90
8709;DHT22;4391;48.678;9.280;2022-10-31T03:31:02;7.60;99.90
8709;DHT22;4391;48.678;9.280;2022-10-31T03:33:34;7.50;99.90
8709;DHT22;4391;48.678;9.280;2022-10-31T03:36:04;7.50;99.90
8709;DHT22;4391;48.678;9.280;2022-10-31T03:38:33;7.50;99.90
8709;DHT22;4391;48.678;9.280;2022-10-31T03:41:04;7.50;99.90
8709;DHT22;4391;48.678;9.280;2022-10-31T03:43:36;7.50;99.90
8709;DHT22;4391;48.678;9.280;2022-10-31T03:46:04;7.40;99.90
8709;DHT22;4391;48.678;9.280;2022-10-31T03:48:33;7.40;99.90
8709;DHT22;4391;48.678;9.280;2022-10-31T03:51:06;7.40;99.90
8709;DHT22;4391;48.678;9.280;2022-10-31T03:53:39;7.40;99.90
8709;DHT22;4391;48.678;9.280;2022-10-31T03:56:11;7.40;99.90
8709;DHT22;4391;48.678;9.280;2022-10-31T03:58:44;7.40;99.90
8709;DHT22;4391;48.678;9.280;2022-10-31T04:01:16;7.30;99.90
8709;DHT22;4391;48.678;9.280;2022-10-31T04:03:45;7.40;99.90
8709;DHT22;4391;48.678;9.280;2022-10-31T04:06:14;7.30;99.90
8709;DHT22;4391;48.678;9.280;2022-10-31T04:08:46;7.30;99.90
8709;DHT22;4391;48.678;9.280;2022-10-31T04:11:17;7.30;99.90
8709;DHT22;4391;48.678;9.280;2022-10-31T04:13:46;7.20;99.90
8709;DHT22;4391;48.678;9.280;2022-10-31T04:16:15;7.20;99.90
8709;DHT22;4391;48.678;9.280;2022-10-31T04:18:44;7.20;99.90
8709;DHT22;4391;48.678;9.280;2022-10-31T04:21:11;7.20;99.90
8709;DHT22;4391;48.678;9.280;2022-10-31T04:23:38;7.20;99.90
8709;DHT22;4391;48.678;9.280;2022-10-31T04:26:04;7.10;99.90
8709;DHT22;4391;48.678;9.280;2022-10-31T04:28:31;7.20;99.90
8709;DHT22;4391;48.678;9.280;2022-10-31T04:30:59;7.10;99.90
8709;DHT22;4391;48.678;9.280;2022-10-31T04:33:26;7.10;99.90
8709;DHT22;4391;48.678;9.280;2022-10-31T04:35:54;7.20;99.90
8709;DHT22;4391;48.678;9.280;2022-10-31T04:38:20;7.10;99.90
8709;DHT22;4391;48.678;9.280;2022-10-31T04:40:47;7.00;99.90
8709;DHT22;4391;48.678;9.280;2022-10-31T04:43:14;7.00;99.90
8709;DHT22;4391;48.678;9.280;2022-10-31T04:45:41;7.00;99.90
8709;DHT22;4391;48.678;9.280;2022-10-31T04:48:07;7.00;99.90
8709;DHT22;4391;48.678;9.280;2022-10-31T04:50:34;7.00;99.90
8709;DHT22;4391;48.678;9.280;2022-10-31T04:53:02;7.00;99.90
8709;DHT22;4391;48.678;9.280;2022-10-31T04:55:29;7.00;99.90
8709;DHT22;4391;48.678;9.280;2022-10-31T04:57:56;6.90;99.90
8709;DHT22;4391;48.678;9.280;2022-10-31T05:00:23;6.90;99.90
8709;DHT22;4391;48.678;9.280;2022-10-31T05:02:51;6.90;99.90
8709;DHT22;4391;48.678;9.280;2022-10-31T05:05:21;6.90;99.90
8709;DHT22;4391;48.678;9.280;2022-10-31T05:07:49;6.80;99.90
8709;DHT22;4391;48.678;9.280;2022-10-31T05:10:19;6.80;99.90
8709;DHT22;4391;48.678;9.280;2022-10-31T05:12:47;6.80;99.90
8709;DHT22;4391;48.678;9.280;2022-10-31T05:15:14;6.80;99.90
8709;DHT22;4391;48.678;9.280;2022-10-31T05:17:41;6.80;99.90
8709;DHT22;4391;48.678;9.280;2022-10-31T05:20:08;6.70;99.90
8709;DHT22;4391;48.678;9.280;2022-10-31T05:22:35;6.70;99.90
8709;DHT22;4391;48.678;9.280;2022-10-31T05:25:03;6.70;99.90
8709;DHT22;4391;48.678;9.280;2022-10-31T05:27:31;6.70;99.90
8709;DHT22;4391;48.678;9.280;2022-10-31T05:29:57;6.70;99.90
8709;DHT22;4391;48.678;9.280;2022-10-31T05:32:24;6.60;99.90
8709;DHT22;4391;48.678;9.280;2022-10-31T05:34:51;6.60;99.90
8709;DHT22;4391;48.678;9.280;2022-10-31T05:37:18;6.60;99.90
8709;DHT22;4391;48.678;9.280;2022-10-31T05:39:44;6.60;99.90
8709;DHT22;4391;48.678;9.280;2022-10-31T05:42:11;6.50;99.90
8709;DHT22;4391;48.678;9.280;2022-10-31T05:44:39;6.50;99.90
8709;DHT22;4391;48.678;9.280;2022-10-31T05:47:06;6.50;99.90
8709;DHT22;4391;48.678;9.280;2022-10-31T05:49:32;6.50;99.90
8709;DHT22;4391;48.678;9.280;2022-10-31T05:51:59;6.50;99.90
8709;DHT22;4391;48.678;9.280;2022-10-31T05:54:26;6.50;99.90
8709;DHT22;4391;48.678;9.280;2022-10-31T05:56:53;6.50;99.90
8709;DHT22;4391;48.678;9.280;2022-10-31T05:59:20;6.50;99.90
8709;DHT22;4391;48.678;9.280;2022-10-31T06:01:48;6.40;99.90
8709;DHT22;4391;48.678;9.280;2022-10-31T06:04:14;6.50;99.90
8709;DHT22;4391;48.678;9.280;2022-10-31T06:06:41;6.50;99.90
8709;DHT22;4391;48.678;9.280;2022-10-31T06:09:08;6.60;99.90
8709;DHT22;4391;48.678;9.280;2022-10-31T06:11:34;6.60;99.90
8709;DHT22;4391;48.678;9.280;2022-10-31T06:14:01;6.60;99.90
8709;DHT22;4391;48.678;9.280;2022-10-31T06:16:28;6.70;99.90
8709;DHT22;4391;48.678;9.280;2022-10-31T06:18:56;6.80;99.90
8709;DHT22;4391;48.678;9.280;2022-10-31T06:21:23;6.80;99.90
8709;DHT22;4391;48.678;9.280;2022-10-31T06:23:50;6.80;99.90
8709;DHT22;4391;48.678;9.280;2022-10-31T06:26:17;6.90;99.90
8709;DHT22;4391;48.678;9.280;2022-10-31T06:28:44;6.90;99.90
8709;DHT22;4391;48.678;9.280;2022-10-31T06:31:10;6.90;99.90
8709;DHT22;4391;48.678;9.280;2022-10-31T06:33:37;6.90;99.90
8709;DHT22;4391;48.678;9.280;2022-10-31T06:36:06;6.90;99.90
8709;DHT22;4391;48.678;9.280;2022-10-31T06:38:33;6.90;99.90
8709;DHT22;4391;48.678;9.280;2022-10-31T06:41:02;6.90;99.90
8709;DHT22;4391;48.678;9.280;2022-10-31T06:43:29;7.00;99.90
8709;DHT22;4391;48.678;9.280;2022-10-31T06:45:56;7.00;99.90
8709;DHT22;4391;48.678;9.280;2022-10-31T06:50:51;7.10;99.90
8709;DHT22;4391;48.678;9.280;2022-10-31T06:53:19;7.10;99.90
8709;DHT22;4391;48.678;9.280;2022-10-31T06:55:46;7.10;99.90
8709;DHT22;4391;48.678;9.280;2022-10-31T06:58:13;7.20;99.90
8709;DHT22;4391;48.678;9.280;2022-10-31T07:00:39;7.20;99.90
8709;DHT22;4391;48.678;9.280;2022-10-31T07:03:10;7.30;99.90
8709;DHT22;4391;48.678;9.280;2022-10-31T07:05:37;7.40;99.90
8709;DHT22;4391;48.678;9.280;2022-10-31T07:08:09;7.40;99.90
8709;DHT22;4391;48.678;9.280;2022-10-31T07:10:41;7.60;99.90
8709;DHT22;4391;48.678;9.280;2022-10-31T07:13:11;7.70;99.90
8709;DHT22;4391;48.678;9.280;2022-10-31T07:15:39;7.80;99.90
8709;DHT22;4391;48.678;9.280;2022-10-31T07:18:08;7.90;99.90
8709;DHT22;4391;48.678;9.280;2022-10-31T07:20:35;8.00;99.90
8709;DHT22;4391;48.678;9.280;2022-10-31T07:23:02;8.00;99.90
8709;DHT22;4391;48.678;9.280;2022-10-31T07:25:29;8.10;99.90
8709;DHT22;4391;48.678;9.280;2022-10-31T07:27:57;8.20;99.90
8709;DHT22;4391;48.678;9.280;2022-10-31T07:30:24;8.30;99.90
8709;DHT22;4391;48.678;9.280;2022-10-31T07:32:51;8.50;99.90
8709;DHT22;4391;48.678;9.280;2022-10-31T07:35:21;8.50;99.90
8709;DHT22;4391;48.678;9.280;2022-10-31T07:37:48;8.60;99.90
8709;DHT22;4391;48.678;9.280;2022-10-31T07:40:15;8.60;99.90
8709;DHT22;4391;48.678;9.280;2022-10-31T07:42:43;8.60;99.90
8709;DHT22;4391;48.678;9.280;2022-10-31T07:45:13;8.70;99.90
8709;DHT22;4391;48.678;9.280;2022-10-31T07:47:44;8.80;99.90
8709;DHT22;4391;48.678;9.280;2022-10-31T07:50:13;8.90;99.90
8709;DHT22;4391;48.678;9.280;2022-10-31T07:52:41;9.00;99.90
8709;DHT22;4391;48.678;9.280;2022-10-31T07:55:08;9.00;99.90
8709;DHT22;4391;48.678;9.280;2022-10-31T07:57:36;9.10;99.90
8709;DHT22;4391;48.678;9.280;2022-10-31T08:00:03;9.20;99.90
8709;DHT22;4391;48.678;9.280;2022-10-31T08:02:32;9.40;99.90
8709;DHT22;4391;48.678;9.280;2022-10-31T08:04:58;9.50;99.90
8709;DHT22;4391;48.678;9.280;2022-10-31T08:07:28;9.70;99.90
8709;DHT22;4391;48.678;9.280;2022-10-31T08:09:55;9.90;99.90
8709;DHT22;4391;48.678;9.280;2022-10-31T08:12:22;10.00;99.90
8709;DHT22;4391;48.678;9.280;2022-10-31T08:14:49;10.20;99.90
8709;DHT22;4391;48.678;9.280;2022-10-31T08:17:16;10.30;99.90
8709;DHT22;4391;48.678;9.280;2022-10-31T08:19:44;10.50;99.90
8709;DHT22;4391;48.678;9.280;2022-10-31T08:22:11;10.70;99.90
8709;DHT22;4391;48.678;9.280;2022-10-31T08:24:38;10.80;99.90
8709;DHT22;4391;48.678;9.280;2022-10-31T08:27:05;11.00;99.90
8709;DHT22;4391;48.678;9.280;2022-10-31T08:29:32;11.10;99.90
8709;DHT22;4391;48.678;9.280;2022-10-31T08:32:01;11.30;99.90
8709;DHT22;4391;48.678;9.280;2022-10-31T08:34:28;11.50;83.90
8709;DHT22;4391;48.678;9.280;2022-10-31T08:36:56;11.70;92.30
8709;DHT22;4391;48.678;9.280;2022-10-31T08:39:23;11.90;80.10
8709;DHT22;4391;48.678;9.280;2022-10-31T08:41:50;12.10;50.10
8709;DHT22;4391;48.678;9.280;2022-10-31T08:44:17;12.30;58.90
8709;DHT22;4391;48.678;9.280;2022-10-31T08:46:44;12.50;46.40
8709;DHT22;4391;48.678;9.280;2022-10-31T08:49:11;12.70;23.50
8709;DHT22;4391;48.678;9.280;2022-10-31T08:51:38;12.90;1.00
8709;DHT22;4391;48.678;9.280;2022-10-31T08:54:06;13.20;1.00
8709;DHT22;4391;48.678;9.280;2022-10-31T08:56:33;13.20;1.00
8709;DHT22;4391;48.678;9.280;2022-10-31T08:59:00;13.20;1.00
8709;DHT22;4391;48.678;9.280;2022-10-31T09:01:27;13.20;1.00
8709;DHT22;4391;48.678;9.280;2022-10-31T09:03:54;13.40;1.00
8709;DHT22;4391;48.678;9.280;2022-10-31T09:06:21;13.50;1.00
8709;DHT22;4391;48.678;9.280;2022-10-31T09:08:48;13.60;1.00
8709;DHT22;4391;48.678;9.280;2022-10-31T09:11:17;13.70;1.00
8709;DHT22;4391;48.678;9.280;2022-10-31T09:13:43;13.80;1.00
8709;DHT22;4391;48.678;9.280;2022-10-31T09:16:10;13.90;1.00
8709;DHT22;4391;48.678;9.280;2022-10-31T09:18:37;14.10;1.00
8709;DHT22;4391;48.678;9.280;2022-10-31T09:21:04;14.20;1.00
8709;DHT22;4391;48.678;9.280;2022-10-31T09:23:31;14.40;1.00
8709;DHT22;4391;48.678;9.280;2022-10-31T09:26:00;14.50;1.00
8709;DHT22;4391;48.678;9.280;2022-10-31T09:28:28;14.70;1.00
8709;DHT22;4391;48.678;9.280;2022-10-31T09:30:57;14.90;1.00
8709;DHT22;4391;48.678;9.280;2022-10-31T09:33:23;15.20;1.00
8709;DHT22;4391;48.678;9.280;2022-10-31T09:35:50;15.30;1.00
8709;DHT22;4391;48.678;9.280;2022-10-31T09:38:19;15.40;99.90
8709;DHT22;4391;48.678;9.280;2022-10-31T09:40:47;15.50;99.90
8709;DHT22;4391;48.678;9.280;2022-10-31T09:43:22;15.70;99.90
8709;DHT22;4391;48.678;9.280;2022-10-31T09:45:58;15.80;99.90
8709;DHT22;4391;48.678;9.280;2022-10-31T09:48:35;16.10;99.90
8709;DHT22;4391;48.678;9.280;2022-10-31T09:51:07;16.20;99.90
8709;DHT22;4391;48.678;9.280;2022-10-31T09:53:40;16.60;80.50
8709;DHT22;4391;48.678;9.280;2022-10-31T09:56:09;17.00;1.00
8709;DHT22;4391;48.678;9.280;2022-10-31T09:58:42;17.10;99.90
8709;DHT22;4391;48.678;9.280;2022-10-31T10:01:22;17.20;1.00
8709;DHT22;4391;48.678;9.280;2022-10-31T10:03:53;17.40;99.90
8709;DHT22;4391;48.678;9.280;2022-10-31T10:06:24;17.60;99.90
8709;DHT22;4391;48.678;9.280;2022-10-31T10:08:52;18.00;1.00
8709;DHT22;4391;48.678;9.280;2022-10-31T10:11:37;18.20;99.90
8709;DHT22;4391;48.678;9.280;2022-10-31T10:14:27;18.40;1.00
8709;DHT22;4391;48.678;9.280;2022-10-31T10:17:11;18.70;99.90
8709;DHT22;4391;48.678;9.280;2022-10-31T10:19:55;18.90;91.10
8709;DHT22;4391;48.678;9.280;2022-10-31T10:22:34;19.10;18.40
8709;DHT22;4391;48.678;9.280;2022-10-31T10:25:16;19.20;1.00
8709;DHT22;4391;48.678;9.280;2022-10-31T10:28:00;19.30;99.90
8709;DHT22;4391;48.678;9.280;2022-10-31T10:30:33;19.60;99.90
8709;DHT22;4391;48.678;9.280;2022-10-31T10:33:09;19.80;18.60
8709;DHT22;4391;48.678;9.280;2022-10-31T10:35:41;19.80;1.00
8709;DHT22;4391;48.678;9.280;2022-10-31T10:38:18;20.00;1.00
8709;DHT22;4391;48.678;9.280;2022-10-31T10:40:46;19.80;1.00
8709;DHT22;4391;48.678;9.280;2022-10-31T10:43:21;19.60;1.00
8709;DHT22;4391;48.678;9.280;2022-10-31T10:45:52;19.10;1.00
8709;DHT22;4391;48.678;9.280;2022-10-31T10:48:43;19.00;99.90
8709;DHT22;4391;48.678;9.280;2022-10-31T10:51:21;19.00;99.90
8709;DHT22;4391;48.678;9.280;2022-10-31T10:54:33;18.90;99.90
8709;DHT22;4391;48.678;9.280;2022-10-31T10:57:30;18.70;99.90
8709;DHT22;4391;48.678;9.280;2022-10-31T11:00:00;18.40;99.90
8709;DHT22;4391;48.678;9.280;2022-10-31T11:02:32;18.30;99.90
8709;DHT22;4391;48.678;9.280;2022-10-31T11:05:01;18.20;99.90
8709;DHT22;4391;48.678;9.280;2022-10-31T11:07:37;17.90;99.90
8709;DHT22;4391;48.678;9.280;2022-10-31T11:10:11;17.90;99.90
8709;DHT22;4391;48.678;9.280;2022-10-31T11:12:41;18.20;1.00
8709;DHT22;4391;48.678;9.280;2022-10-31T11:15:23;18.70;99.90
8709;DHT22;4391;48.678;9.280;2022-10-31T11:17:52;19.30;16.00
8709;DHT22;4391;48.678;9.280;2022-10-31T11:20:32;19.70;1.00
8709;DHT22;4391;48.678;9.280;2022-10-31T11:23:17;20.30;99.90
8709;DHT22;4391;48.678;9.280;2022-10-31T11:25:52;20.60;23.60
8709;DHT22;4391;48.678;9.280;2022-10-31T11:28:20;20.90;1.00
8709;DHT22;4391;48.678;9.280;2022-10-31T11:30:49;20.80;1.00
8709;DHT22;4391;48.678;9.280;2022-10-31T11:33:20;20.80;1.00
8709;DHT22;4391;48.678;9.280;2022-10-31T11:35:52;20.90;1.00
8709;DHT22;4391;48.678;9.280;2022-10-31T11:38:24;21.20;1.00
8709;DHT22;4391;48.678;9.280;2022-10-31T11:40:56;21.40;1.00
8709;DHT22;4391;48.678;9.280;2022-10-31T11:43:24;21.80;1.00
8709;DHT22;4391;48.678;9.280;2022-10-31T11:45:53;22.00;1.00
8709;DHT22;4391;48.678;9.280;2022-10-31T11:48:21;22.30;1.00
8709;DHT22;4391;48.678;9.280;2022-10-31T11:50:52;22.90;1.00
8709;DHT22;4391;48.678;9.280;2022-10-31T11:53:26;23.10;99.90
8709;DHT22;4391;48.678;9.280;2022-10-31T11:56:09;23.00;99.90
8709;DHT22;4391;48.678;9.280;2022-10-31T11:58:37;22.90;99.90
8709;DHT22;4391;48.678;9.280;2022-10-31T12:01:03;22.80;99.90
8709;DHT22;4391;48.678;9.280;2022-10-31T12:03:41;22.80;99.90
8709;DHT22;4391;48.678;9.280;2022-10-31T12:06:14;22.70;99.90
8709;DHT22;4391;48.678;9.280;2022-10-31T12:08:43;22.70;99.90
8709;DHT22;4391;48.678;9.280;2022-10-31T12:11:34;22.80;99.90
8709;DHT22;4391;48.678;9.280;2022-10-31T12:14:12;22.60;99.90
8709;DHT22;4391;48.678;9.280;2022-10-31T12:16:49;22.60;99.90
8709;DHT22;4391;48.678;9.280;2022-10-31T12:19:29;22.70;99.90
8709;DHT22;4391;48.678;9.280;2022-10-31T12:22:11;22.70;99.90
8709;DHT22;4391;48.678;9.280;2022-10-31T12:24:54;22.30;99.90
8709;DHT22;4391;48.678;9.280;2022-10-31T12:27:30;21.90;1.00
8709;DHT22;4391;48.678;9.280;2022-10-31T12:30:14;21.70;1.00
8709;DHT22;4391;48.678;9.280;2022-10-31T12:32:52;21.30;1.00
8709;DHT22;4391;48.678;9.280;2022-10-31T12:35:45;21.00;1.00
8709;DHT22;4391;48.678;9.280;2022-10-31T12:38:32;20.70;1.00
8709;DHT22;4391;48.678;9.280;2022-10-31T12:41:19;20.50;1.00
8709;DHT22;4391;48.678;9.280;2022-10-31T12:43:53;20.30;99.90
8709;DHT22;4391;48.678;9.280;2022-10-31T12:46:30;20.10;99.90
8709;DHT22;4391;48.678;9.280;2022-10-31T12:49:15;19.90;99.90
8709;DHT22;4391;48.678;9.280;2022-10-31T12:51:52;19.70;1.00
8709;DHT22;4391;48.678;9.280;2022-10-31T12:54:37;19.60;99.90
8709;DHT22;4391;48.678;9.280;2022-10-31T12:57:15;19.30;49.40
8709;DHT22;4391;48.678;9.280;2022-10-31T12:59:48;19.10;99.90
8709;DHT22;4391;48.678;9.280;2022-10-31T13:02:19;19.00;1.00
8709;DHT22;4391;48.678;9.280;2022-10-31T13:04:51;18.90;99.90
8709;DHT22;4391;48.678;9.280;2022-10-31T13:07:21;18.80;38.80
8709;DHT22;4391;48.678;9.280;2022-10-31T13:09:58;18.70;1.00
8709;DHT22;4391;48.678;9.280;2022-10-31T13:12:29;18.70;99.90
8709;DHT22;4391;48.678;9.280;2022-10-31T13:14:58;18.60;1.00
8709;DHT22;4391;48.678;9.280;2022-10-31T13:17:30;18.60;1.00
8709;DHT22;4391;48.678;9.280;2022-10-31T13:20:12;18.60;1.00
8709;DHT22;4391;48.678;9.280;2022-10-31T13:22:43;18.60;1.00
8709;DHT22;4391;48.678;9.280;2022-10-31T13:25:15;18.50;99.90
8709;DHT22;4391;48.678;9.280;2022-10-31T13:27:47;18.50;99.90
8709;DHT22;4391;48.678;9.280;2022-10-31T13:30:17;18.50;99.90
8709;DHT22;4391;48.678;9.280;2022-10-31T13:32:48;18.40;1.00
8709;DHT22;4391;48.678;9.280;2022-10-31T13:35:23;18.60;99.90
8709;DHT22;4391;48.678;9.280;2022-10-31T13:38:02;18.80;99.90
8709;DHT22;4391;48.678;9.280;2022-10-31T13:40:42;19.00;1.00
8709;DHT22;4391;48.678;9.280;2022-10-31T13:43:19;19.40;93.10
8709;DHT22;4391;48.678;9.280;2022-10-31T13:45:50;20.40;99.90
8709;DHT22;4391;48.678;9.280;2022-10-31T13:48:20;21.20;99.90
8709;DHT22;4391;48.678;9.280;2022-10-31T13:50:59;22.30;1.00
8709;DHT22;4391;48.678;9.280;2022-10-31T13:56:24;22.70;1.00
8709;DHT22;4391;48.678;9.280;2022-10-31T13:59:03;22.40;1.00
8709;DHT22;4391;48.678;9.280;2022-10-31T14:01:31;22.30;1.00
8709;DHT22;4391;48.678;9.280;2022-10-31T14:04:02;22.20;1.00
8709;DHT22;4391;48.678;9.280;2022-10-31T14:06:39;22.10;1.00
8709;DHT22;4391;48.678;9.280;2022-10-31T14:09:19;21.80;1.00
8709;DHT22;4391;48.678;9.280;2022-10-31T14:11:49;21.70;1.00
8709;DHT22;4391;48.678;9.280;2022-10-31T14:14:17;21.90;1.00
8709;DHT22;4391;48.678;9.280;2022-10-31T14:16:46;22.80;1.00
8709;DHT22;4391;48.678;9.280;2022-10-31T14:19:20;24.20;99.90
8709;DHT22;4391;48.678;9.280;2022-10-31T14:21:48;25.80;99.90
8709;DHT22;4391;48.678;9.280;2022-10-31T14:24:30;27.20;99.90
8709;DHT22;4391;48.678;9.280;2022-10-31T14:27:00;28.10;99.90
8709;DHT22;4391;48.678;9.280;2022-10-31T14:29:29;28.70;99.90
8709;DHT22;4391;48.678;9.280;2022-10-31T14:32:05;28.80;99.90
8709;DHT22;4391;48.678;9.280;2022-10-31T14:34:38;29.00;99.90
8709;DHT22;4391;48.678;9.280;2022-10-31T14:37:41;29.20;99.90
8709;DHT22;4391;48.678;9.280;2022-10-31T14:40:33;28.90;99.90
8709;DHT22;4391;48.678;9.280;2022-10-31T14:43:21;28.30;99.90
8709;DHT22;4391;48.678;9.280;2022-10-31T14:45:57;26.90;99.90
8709;DHT22;4391;48.678;9.280;2022-10-31T14:48:39;25.50;99.90
8709;DHT22;4391;48.678;9.280;2022-10-31T14:51:12;24.30;99.90
8709;DHT22;4391;48.678;9.280;2022-10-31T14:53:45;23.30;99.90
8709;DHT22;4391;48.678;9.280;2022-10-31T14:56:19;22.50;99.90
8709;DHT22;4391;48.678;9.280;2022-10-31T14:58:48;21.90;1.00
8709;DHT22;4391;48.678;9.280;2022-10-31T15:01:21;22.20;1.00
8709;DHT22;4391;48.678;9.280;2022-10-31T15:03:50;22.50;99.90
8709;DHT22;4391;48.678;9.280;2022-10-31T15:06:19;22.70;99.90
8709;DHT22;4391;48.678;9.280;2022-10-31T15:08:50;22.60;99.90
8709;DHT22;4391;48.678;9.280;2022-10-31T15:11:20;22.00;99.90
8709;DHT22;4391;48.678;9.280;2022-10-31T15:13:49;21.20;1.00
8709;DHT22;4391;48.678;9.280;2022-10-31T15:16:19;20.40;15.20
8709;DHT22;4391;48.678;9.280;2022-10-31T15:18:53;19.60;99.90
8709;DHT22;4391;48.678;9.280;2022-10-31T15:21:21;19.00;1.00
8709;DHT22;4391;48.678;9.280;2022-10-31T15:23:51;18.40;99.90
8709;DHT22;4391;48.678;9.280;2022-10-31T15:26:22;17.80;92.60
8709;DHT22;4391;48.678;9.280;2022-10-31T15:28:59;17.40;99.90
8709;DHT22;4391;48.678;9.280;2022-10-31T15:31:27;16.90;99.90
8709;DHT22;4391;48.678;9.280;2022-10-31T15:33:55;16.60;99.90
8709;DHT22;4391;48.678;9.280;2022-10-31T15:36:24;16.30;99.90
8709;DHT22;4391;48.678;9.280;2022-10-31T15:38:51;16.10;1.00
8709;DHT22;4391;48.678;9.280;2022-10-31T15:41:24;15.90;1.00
8709;DHT22;4391;48.678;9.280;2022-10-31T15:43:52;15.60;1.00
8709;DHT22;4391;48.678;9.280;2022-10-31T15:46:20;15.40;1.00
8709;DHT22;4391;48.678;9.280;2022-10-31T15:48:47;15.20;1.00
8709;DHT22;4391;48.678;9.280;2022-10-31T15:51:15;15.00;1.00
8709;DHT22;4391;48.678;9.280;2022-10-31T15:53:46;14.90;1.00
8709;DHT22;4391;48.678;9.280;2022-10-31T15:56:21;14.80;1.00
8709;DHT22;4391;48.678;9.280;2022-10-31T15:58:51;14.60;1.00
8709;DHT22;4391;48.678;9.280;2022-10-31T16:01:22;14.50;4.00
8709;DHT22;4391;48.678;9.280;2022-10-31T16:04:00;14.30;14.10
8709;DHT22;4391;48.678;9.280;2022-10-31T16:06:28;14.20;26.50
8709;DHT22;4391;48.678;9.280;2022-10-31T16:08:55;14.10;39.50
8709;DHT22;4391;48.678;9.280;2022-10-31T16:11:24;14.00;36.80
8709;DHT22;4391;48.678;9.280;2022-10-31T16:13:57;14.00;43.00
8709;DHT22;4391;48.678;9.280;2022-10-31T16:16:26;14.00;45.10
8709;DHT22;4391;48.678;9.280;2022-10-31T16:18:54;14.00;43.00
8709;DHT22;4391;48.678;9.280;2022-10-31T16:21:30;14.00;44.50
8709;DHT22;4391;48.678;9.280;2022-10-31T16:24:00;14.00;45.80
8709;DHT22;4391;48.678;9.280;2022-10-31T16:26:28;13.90;47.00
8709;DHT22;4391;48.678;9.280;2022-10-31T16:28:57;13.80;50.80
8709;DHT22;4391;48.678;9.280;2022-10-31T16:31:36;13.70;57.60
8709;DHT22;4391;48.678;9.280;2022-10-31T16:34:05;13.60;63.20
8709;DHT22;4391;48.678;9.280;2022-10-31T16:36:36;13.50;72.40
8709;DHT22;4391;48.678;9.280;2022-10-31T16:39:05;13.30;81.50
8709;DHT22;4391;48.678;9.280;2022-10-31T16:41:35;13.10;93.50
8709;DHT22;4391;48.678;9.280;2022-10-31T16:44:04;13.00;99.90